Terminal Aerodrome Forecast
Issued by NWS

Home | Current Version | Previous Version | Text Only | Print | Product List | Glossary On
Versions: 1 2 3 4 5 6 7 8 9 10 11 12 13 14 15 16 17 18 19 20 21 22
000
FTUS41 KBGM 181700
TAFELM
TAF
KELM 181730Z 1818/1918 36008KT P6SM SCT035 BKN050
     FM190000 02003KT P6SM SKC
      TEMPO 1908/1912 1SM BR FEW001
     FM191500 11005KT P6SM FEW025=

USA.gov is the U.S. government's official web portal to all federal, state and local government web resources and services.